createdAt,value
2023-02-13T00:01:00.665Z,4.06
2023-02-13T00:03:28.526Z,4.07
2023-02-13T00:05:56.598Z,4.08
2023-02-13T00:08:24.392Z,4.09
2023-02-13T00:10:52.223Z,4.10
2023-02-13T00:13:19.905Z,4.11
2023-02-13T00:15:56.413Z,4.13
2023-02-13T00:18:24.549Z,4.19
2023-02-13T00:20:59.210Z,4.21
2023-02-13T00:23:27.178Z,4.21
2023-02-13T00:25:54.894Z,4.21
2023-02-13T00:28:22.842Z,4.22
2023-02-13T00:30:50.782Z,4.23
2023-02-13T00:33:18.941Z,4.24
2023-02-13T00:35:46.682Z,4.26
2023-02-13T00:38:14.369Z,4.27
2023-02-13T00:40:42.123Z,4.28
2023-02-13T00:43:09.805Z,4.28
2023-02-13T00:45:37.534Z,4.29
2023-02-13T00:48:05.251Z,4.29
2023-02-13T00:50:32.989Z,4.30
2023-02-13T00:53:00.695Z,4.36
2023-02-13T00:55:28.415Z,5.15
2023-02-13T00:57:56.198Z,6.08
2023-02-13T01:00:23.944Z,6.14
2023-02-13T01:02:51.712Z,5.97
2023-02-13T01:05:19.910Z,5.79
2023-02-13T01:07:50.588Z,5.68
2023-02-13T01:10:18.314Z,5.56
2023-02-13T01:12:46.108Z,5.41
2023-02-13T01:15:13.906Z,5.31
2023-02-13T01:17:41.682Z,5.24
2023-02-13T01:20:12.276Z,5.18
2023-02-13T01:22:41.099Z,5.13
2023-02-13T01:25:08.828Z,5.08
2023-02-13T01:27:38.181Z,5.01
2023-02-13T01:30:13.558Z,4.94
2023-02-13T01:32:43.306Z,4.87
2023-02-13T01:35:13.831Z,4.82
2023-02-13T01:37:42.339Z,4.78
2023-02-13T01:40:15.112Z,4.75
2023-02-13T01:42:43.778Z,4.73
2023-02-13T01:45:20.371Z,4.72
2023-02-13T01:47:56.797Z,4.70
2023-02-13T01:50:34.190Z,4.70
2023-02-13T01:53:17.894Z,4.73
2023-02-13T01:55:54.236Z,4.70
2023-02-13T01:58:26.778Z,4.70
2023-02-13T02:00:54.813Z,4.75
2023-02-13T02:03:34.522Z,4.78
2023-02-13T02:06:11.338Z,4.73
2023-02-13T02:08:39.436Z,4.66
2023-02-13T02:11:17.969Z,4.62
2023-02-13T02:13:46.579Z,4.59
2023-02-13T02:16:14.556Z,4.57
2023-02-13T02:18:42.318Z,4.55
2023-02-13T02:21:10.137Z,4.54
2023-02-13T02:23:56.279Z,4.53
2023-02-13T02:27:01.749Z,4.51
2023-02-13T02:29:49.969Z,4.50
2023-02-13T02:32:24.261Z,4.49
2023-02-13T02:34:51.943Z,4.49
2023-02-13T02:38:14.624Z,4.49
2023-02-13T02:40:55.399Z,4.48
2023-02-13T02:43:26.440Z,4.47
2023-02-13T02:46:10.596Z,4.49
2023-02-13T02:49:07.727Z,4.51
2023-02-13T02:51:38.162Z,4.52
2023-02-13T02:54:33.210Z,4.50
2023-02-13T02:57:10.142Z,4.47
2023-02-13T03:00:00.516Z,4.46
2023-02-13T03:02:49.697Z,4.45
2023-02-13T03:05:41.395Z,4.45
2023-02-13T03:08:09.992Z,4.46
2023-02-13T03:10:57.694Z,4.47
2023-02-13T03:13:38.168Z,4.48
2023-02-13T03:16:25.634Z,4.50
2023-02-13T03:19:16.156Z,4.52
2023-02-13T03:22:18.487Z,4.54
2023-02-13T03:25:01.383Z,4.55
2023-02-13T03:28:03.002Z,4.57
2023-02-13T03:30:52.156Z,4.57
2023-02-13T03:33:38.265Z,4.58
2023-02-13T03:36:52.875Z,4.58
2023-02-13T03:39:26.395Z,4.58
2023-02-13T03:42:00.031Z,4.58
2023-02-13T03:44:37.955Z,4.58
2023-02-13T03:47:08.878Z,4.58
2023-02-13T03:50:02.214Z,4.58
2023-02-13T03:53:05.440Z,4.59
2023-02-13T03:55:59.676Z,4.58
2023-02-13T03:58:51.742Z,4.58
2023-02-13T04:01:24.144Z,4.59
2023-02-13T04:04:44.456Z,4.59
2023-02-13T04:07:29.641Z,4.59
2023-02-13T04:10:10.204Z,4.59
2023-02-13T04:12:49.000Z,4.59
2023-02-13T04:15:26.002Z,4.59
2023-02-13T04:18:03.390Z,4.60
2023-02-13T04:20:34.527Z,4.61
2023-02-13T04:23:10.073Z,4.61
2023-02-13T04:25:40.083Z,4.61
2023-02-13T04:28:08.122Z,4.61
2023-02-13T04:30:36.025Z,4.61
2023-02-13T04:33:04.058Z,4.60
2023-02-13T04:35:31.923Z,4.60
2023-02-13T04:37:59.702Z,4.60
2023-02-13T04:40:27.538Z,4.60
2023-02-13T04:42:55.472Z,4.60
2023-02-13T04:45:23.229Z,4.60
2023-02-13T04:47:52.878Z,4.61
2023-02-13T04:50:21.001Z,4.61
2023-02-13T04:52:53.516Z,4.62
2023-02-13T04:55:23.145Z,4.63
2023-02-13T04:57:55.685Z,4.62
2023-02-13T05:00:26.177Z,4.63
2023-02-13T05:02:54.691Z,4.64
2023-02-13T05:05:22.656Z,4.64
2023-02-13T05:07:50.376Z,4.64
2023-02-13T05:10:18.216Z,4.65
2023-02-13T05:12:45.882Z,4.65
2023-02-13T05:15:13.712Z,4.65
2023-02-13T05:17:44.471Z,4.66
2023-02-13T05:20:14.140Z,4.65
2023-02-13T05:23:07.255Z,4.65
2023-02-13T05:25:35.503Z,4.65
2023-02-13T05:28:03.983Z,4.66
2023-02-13T05:30:31.689Z,4.64
2023-02-13T05:32:59.358Z,4.65
2023-02-13T05:35:27.130Z,4.65
2023-02-13T05:37:54.898Z,4.66
2023-02-13T05:40:23.035Z,4.66
2023-02-13T05:42:54.281Z,4.67
2023-02-13T05:45:21.941Z,4.66
2023-02-13T05:47:49.932Z,4.66
2023-02-13T05:50:17.845Z,4.66
2023-02-13T05:52:45.634Z,4.66
2023-02-13T05:55:13.354Z,4.65
2023-02-13T05:57:41.237Z,4.65
2023-02-13T06:00:09.504Z,4.65
2023-02-13T06:02:37.280Z,4.65
2023-02-13T06:05:05.542Z,4.65
2023-02-13T06:07:33.976Z,4.65
2023-02-13T06:10:01.733Z,4.64
2023-02-13T06:12:29.535Z,4.64
2023-02-13T06:14:57.415Z,4.64
2023-02-13T06:17:25.178Z,4.65
2023-02-13T06:19:52.877Z,4.64
2023-02-13T06:22:20.818Z,4.64
2023-02-13T06:24:48.564Z,4.65
2023-02-13T06:27:16.260Z,4.66
2023-02-13T06:29:44.016Z,4.68
2023-02-13T06:32:11.917Z,4.69
2023-02-13T06:34:39.638Z,4.70
2023-02-13T06:37:07.321Z,4.71
2023-02-13T06:39:35.101Z,4.71
2023-02-13T06:42:02.969Z,4.73
2023-02-13T06:44:30.736Z,4.73
2023-02-13T06:46:58.465Z,4.75
2023-02-13T06:49:26.238Z,4.77
2023-02-13T06:51:53.942Z,4.79
2023-02-13T06:54:28.686Z,4.81
2023-02-13T06:57:01.679Z,4.84
2023-02-13T06:59:29.432Z,4.87
2023-02-13T07:01:57.219Z,4.89
2023-02-13T07:04:25.455Z,4.91
2023-02-13T07:06:55.798Z,4.94
2023-02-13T07:09:24.412Z,4.96
2023-02-13T07:11:52.498Z,4.98
2023-02-13T07:14:20.302Z,5.00
2023-02-13T07:16:48.032Z,5.03
2023-02-13T07:19:15.948Z,5.05
2023-02-13T07:21:43.747Z,5.07
2023-02-13T07:24:11.605Z,5.10
2023-02-13T07:26:39.290Z,5.13
2023-02-13T07:29:11.833Z,5.15
2023-02-13T07:31:40.137Z,5.16
2023-02-13T07:34:08.228Z,5.18
2023-02-13T07:36:36.003Z,5.19
2023-02-13T07:39:04.219Z,5.22
2023-02-13T07:41:31.983Z,5.24
2023-02-13T07:43:59.926Z,5.27
2023-02-13T07:46:27.707Z,5.28
2023-02-13T07:48:56.297Z,5.29
2023-02-13T07:51:29.021Z,5.30
2023-02-13T07:53:57.709Z,5.29
2023-02-13T07:56:25.564Z,5.28
2023-02-13T07:58:53.321Z,5.27
2023-02-13T08:01:21.143Z,5.26
2023-02-13T08:03:53.544Z,5.26
2023-02-13T08:06:22.944Z,5.25
2023-02-13T08:09:10.813Z,5.25
2023-02-13T08:12:04.636Z,5.27
2023-02-13T08:14:32.546Z,5.31
2023-02-13T08:17:01.804Z,5.34
2023-02-13T08:19:30.079Z,5.38
2023-02-13T08:21:57.935Z,5.42
2023-02-13T08:24:25.784Z,5.45
2023-02-13T08:26:53.583Z,5.48
2023-02-13T08:29:21.347Z,5.53
2023-02-13T08:31:49.071Z,5.59
2023-02-13T08:34:16.872Z,5.64
2023-02-13T08:36:44.590Z,5.71
2023-02-13T08:39:12.523Z,5.92
2023-02-13T08:41:40.312Z,6.31
2023-02-13T08:44:08.032Z,6.86
2023-02-13T08:46:35.862Z,7.51
2023-02-13T08:49:03.891Z,8.03
2023-02-13T08:51:31.818Z,8.41
2023-02-13T08:53:59.604Z,8.74
2023-02-13T08:56:27.476Z,8.99
2023-02-13T08:58:55.224Z,9.22
2023-02-13T09:01:24.483Z,9.45
2023-02-13T09:03:52.457Z,9.62
2023-02-13T09:06:20.357Z,9.79
2023-02-13T09:08:48.170Z,9.92
2023-02-13T09:11:15.914Z,9.90
2023-02-13T09:13:43.704Z,9.76
2023-02-13T09:16:11.774Z,9.57
2023-02-13T09:18:39.742Z,9.22
2023-02-13T09:21:10.992Z,8.89
2023-02-13T09:23:41.105Z,8.58
2023-02-13T09:26:11.936Z,8.28
2023-02-13T09:28:41.286Z,8.02
2023-02-13T09:31:11.543Z,7.80
2023-02-13T09:33:39.451Z,7.65
2023-02-13T09:36:10.011Z,7.53
2023-02-13T09:38:37.809Z,7.39
2023-02-13T09:41:17.437Z,7.26
2023-02-13T09:43:49.699Z,7.13
2023-02-13T09:46:23.221Z,7.01
2023-02-13T09:48:55.950Z,6.93
2023-02-13T09:51:25.895Z,6.85
2023-02-13T09:53:57.945Z,6.77
2023-02-13T09:56:31.547Z,6.70
2023-02-13T09:59:06.482Z,6.63
2023-02-13T10:01:39.567Z,6.54
2023-02-13T10:04:52.819Z,6.45
2023-02-13T10:07:30.623Z,6.35
2023-02-13T10:09:58.316Z,6.28
2023-02-13T10:13:07.406Z,6.22
2023-02-13T10:16:03.991Z,6.16
2023-02-13T10:18:45.026Z,6.11
2023-02-13T10:21:14.131Z,6.07
2023-02-13T10:23:47.736Z,6.07
2023-02-13T10:26:22.520Z,6.10
2023-02-13T10:29:44.332Z,6.16
2023-02-13T10:32:17.193Z,6.24
2023-02-13T10:34:46.915Z,6.31
2023-02-13T10:37:16.720Z,6.35
2023-02-13T10:39:48.335Z,6.38
2023-02-13T10:42:23.934Z,6.42
2023-02-13T10:45:27.334Z,6.45
2023-02-13T10:48:06.802Z,6.43
2023-02-13T10:50:45.935Z,6.41
2023-02-13T10:53:13.627Z,6.38
2023-02-13T10:56:05.862Z,6.39
2023-02-13T10:59:07.128Z,6.41
2023-02-13T11:01:47.818Z,6.44
2023-02-13T11:04:19.188Z,6.45
2023-02-13T11:07:00.435Z,6.49
2023-02-13T11:09:30.021Z,6.50
2023-02-13T11:11:57.780Z,6.51
2023-02-13T11:14:27.372Z,6.54
2023-02-13T11:17:09.871Z,6.58
2023-02-13T11:19:47.843Z,6.65
2023-02-13T11:22:28.240Z,6.68
2023-02-13T11:24:59.998Z,6.67
2023-02-13T11:27:33.091Z,6.66
2023-02-13T11:30:05.147Z,6.63
2023-02-13T11:32:35.004Z,6.60
2023-02-13T11:35:29.803Z,6.58
2023-02-13T11:38:24.571Z,6.56
2023-02-13T11:41:14.516Z,6.61
2023-02-13T11:44:04.068Z,6.65
2023-02-13T11:46:47.362Z,6.68
2023-02-13T11:49:34.028Z,6.71
2023-02-13T11:52:04.543Z,6.75
2023-02-13T11:54:35.704Z,6.79
2023-02-13T11:57:15.377Z,6.82
2023-02-13T11:59:45.217Z,6.83
2023-02-13T12:02:16.156Z,6.81
2023-02-13T12:04:44.362Z,6.77
2023-02-13T12:07:32.576Z,6.74
2023-02-13T12:10:11.565Z,6.76
2023-02-13T12:13:07.656Z,6.80
2023-02-13T12:15:37.096Z,6.88
2023-02-13T12:18:15.953Z,6.97
2023-02-13T12:20:52.206Z,7.07
2023-02-13T12:23:22.734Z,7.16
2023-02-13T12:26:19.613Z,7.20
2023-02-13T12:28:56.235Z,7.23
2023-02-13T12:31:36.277Z,7.20
2023-02-13T12:34:29.030Z,7.16
2023-02-13T12:37:11.892Z,7.14
2023-02-13T12:40:15.691Z,7.11
2023-02-13T12:43:08.037Z,7.03
2023-02-13T12:45:48.861Z,6.99
2023-02-13T12:48:46.861Z,6.99
2023-02-13T12:51:41.144Z,7.01
2023-02-13T12:54:15.380Z,7.06
2023-02-13T12:56:58.554Z,7.15
2023-02-13T12:59:51.337Z,7.29
2023-02-13T13:02:38.083Z,7.45
2023-02-13T13:05:30.583Z,7.58
2023-02-13T13:08:01.100Z,7.69
2023-02-13T13:10:35.840Z,7.73
2023-02-13T13:13:16.593Z,7.76
2023-02-13T13:16:15.876Z,7.72
2023-02-13T13:19:11.456Z,7.57
2023-02-13T13:21:45.236Z,7.40
2023-02-13T13:24:31.906Z,7.29
2023-02-13T13:27:02.020Z,7.23
2023-02-13T13:29:39.104Z,7.16
2023-02-13T13:32:11.622Z,7.08
2023-02-13T13:34:40.235Z,7.01
2023-02-13T13:37:37.730Z,6.96
2023-02-13T13:40:30.430Z,6.90
2023-02-13T13:43:21.330Z,6.85
2023-02-13T13:45:54.866Z,6.79
2023-02-13T13:49:07.136Z,6.74
2023-02-13T13:51:34.865Z,6.69
2023-02-13T13:54:05.617Z,6.67
2023-02-13T13:57:02.188Z,6.64
2023-02-13T13:59:33.179Z,6.58
2023-02-13T14:02:19.374Z,6.53
2023-02-13T14:05:09.177Z,6.48
2023-02-13T14:07:41.466Z,6.44
2023-02-13T14:10:21.483Z,6.42
2023-02-13T14:12:55.256Z,6.40
2023-02-13T14:15:46.079Z,6.39
2023-02-13T14:18:13.869Z,6.39
2023-02-13T14:20:50.913Z,6.39
2023-02-13T14:23:24.646Z,6.39
2023-02-13T14:26:13.383Z,6.38
2023-02-13T14:28:54.268Z,6.38
2023-02-13T14:31:27.835Z,6.38
2023-02-13T14:34:05.399Z,6.38
2023-02-13T14:36:36.520Z,6.37
2023-02-13T14:39:08.478Z,6.37
2023-02-13T14:42:01.997Z,6.34
2023-02-13T14:44:39.410Z,6.30
2023-02-13T14:47:28.981Z,6.26
2023-02-13T14:49:59.666Z,6.24
2023-02-13T14:52:38.652Z,6.22
2023-02-13T14:55:20.762Z,6.20
2023-02-13T14:58:05.663Z,6.19
2023-02-13T15:01:05.307Z,6.18
2023-02-13T15:03:54.979Z,6.15
2023-02-13T15:06:30.050Z,6.14
2023-02-13T15:09:02.060Z,6.14
2023-02-13T15:11:42.930Z,6.12
2023-02-13T15:14:25.688Z,6.12
2023-02-13T15:16:59.604Z,6.09
2023-02-13T15:19:28.500Z,6.06
2023-02-13T15:22:01.994Z,6.05
2023-02-13T15:24:47.045Z,6.01
2023-02-13T15:27:26.805Z,5.99
2023-02-13T15:30:00.006Z,5.97
2023-02-13T15:32:37.027Z,5.94
2023-02-13T15:35:23.538Z,5.92
2023-02-13T15:37:51.901Z,5.90
2023-02-13T15:40:27.346Z,5.87
2023-02-13T15:42:56.702Z,5.86
2023-02-13T15:45:27.520Z,5.85
2023-02-13T15:47:56.590Z,5.83
2023-02-13T15:50:30.846Z,5.81
2023-02-13T15:53:04.528Z,5.79
2023-02-13T15:55:36.236Z,5.77
2023-02-13T15:58:04.284Z,5.75
2023-02-13T16:00:36.355Z,5.74
2023-02-13T16:03:07.635Z,5.72
2023-02-13T16:05:41.343Z,5.70
2023-02-13T16:08:31.170Z,5.68
2023-02-13T16:11:17.038Z,5.67
2023-02-13T16:14:25.539Z,5.66
2023-02-13T16:16:59.519Z,5.64
2023-02-13T16:19:39.597Z,5.64
2023-02-13T16:22:33.078Z,5.63
2023-02-13T16:25:16.139Z,5.63
2023-02-13T16:28:05.873Z,5.63
2023-02-13T16:30:34.128Z,5.61
2023-02-13T16:33:15.912Z,5.61
2023-02-13T16:35:45.946Z,5.62
2023-02-13T16:38:26.187Z,5.64
2023-02-13T16:40:56.433Z,5.65
2023-02-13T16:43:33.614Z,5.64
2023-02-13T16:46:19.585Z,5.63
2023-02-13T16:48:56.451Z,5.63
2023-02-13T16:51:33.525Z,5.63
2023-02-13T16:54:10.761Z,5.64
2023-02-13T16:56:50.296Z,5.64
2023-02-13T16:59:43.170Z,5.63
2023-02-13T17:02:23.312Z,5.63
2023-02-13T17:05:09.756Z,5.62
2023-02-13T17:07:40.414Z,5.62
2023-02-13T17:10:22.117Z,5.62
2023-02-13T17:12:51.385Z,5.61
2023-02-13T17:15:23.567Z,5.60
2023-02-13T17:17:52.097Z,5.58
2023-02-13T17:20:23.358Z,5.57
2023-02-13T17:22:56.824Z,5.56
2023-02-13T17:25:33.817Z,5.55
2023-02-13T17:28:11.595Z,5.54
2023-02-13T17:30:39.432Z,5.54
2023-02-13T17:33:12.431Z,5.54
2023-02-13T17:35:40.255Z,5.54
2023-02-13T17:38:09.685Z,5.54
2023-02-13T17:40:37.594Z,5.53
2023-02-13T17:43:05.313Z,5.52
2023-02-13T17:45:34.841Z,5.51
2023-02-13T17:48:05.226Z,5.50
2023-02-13T17:50:34.020Z,5.48
2023-02-13T17:53:05.501Z,5.47
2023-02-13T17:55:34.772Z,5.47
2023-02-13T17:58:03.018Z,5.46
2023-02-13T18:00:33.180Z,5.44
2023-02-13T18:03:01.531Z,5.43
2023-02-13T18:05:29.531Z,5.42
2023-02-13T18:07:57.266Z,5.42
2023-02-13T18:10:27.640Z,5.41
2023-02-13T18:12:58.350Z,5.41
2023-02-13T18:15:26.148Z,5.40
2023-02-13T18:17:53.986Z,5.40
2023-02-13T18:20:23.002Z,5.39
2023-02-13T18:22:50.859Z,5.38
2023-02-13T18:25:20.802Z,5.38
2023-02-13T18:27:48.798Z,5.37
2023-02-13T18:30:20.066Z,5.36
2023-02-13T18:32:55.673Z,5.34
2023-02-13T18:35:23.798Z,5.33
2023-02-13T18:37:51.626Z,5.33
2023-02-13T18:40:19.592Z,5.31
2023-02-13T18:42:48.126Z,5.31
2023-02-13T18:45:17.014Z,5.29
2023-02-13T18:47:44.739Z,5.30
2023-02-13T18:50:12.607Z,5.28
2023-02-13T18:52:40.748Z,5.27
2023-02-13T18:55:09.429Z,5.26
2023-02-13T18:57:37.150Z,5.26
2023-02-13T19:00:06.161Z,5.26
2023-02-13T19:02:34.183Z,5.24
2023-02-13T19:05:02.002Z,5.23
2023-02-13T19:07:29.757Z,5.21
2023-02-13T19:09:57.502Z,5.20
2023-02-13T19:12:25.337Z,5.18
2023-02-13T19:14:53.917Z,5.17
2023-02-13T19:17:21.928Z,5.15
2023-02-13T19:19:50.523Z,5.15
2023-02-13T19:22:18.601Z,5.15
2023-02-13T19:24:46.390Z,5.14
2023-02-13T19:27:14.813Z,5.13
2023-02-13T19:29:42.851Z,5.13
2023-02-13T19:32:10.784Z,5.12
2023-02-13T19:34:38.671Z,5.12
2023-02-13T19:37:06.469Z,5.11
2023-02-13T19:39:34.439Z,5.10
2023-02-13T19:42:02.199Z,5.09
2023-02-13T19:44:29.963Z,5.09
2023-02-13T19:46:57.702Z,5.09
2023-02-13T19:49:25.437Z,5.08
2023-02-13T19:51:53.131Z,5.07
2023-02-13T19:54:20.889Z,5.07
2023-02-13T19:56:48.764Z,5.06
2023-02-13T19:59:16.497Z,5.05
2023-02-13T20:01:45.742Z,5.06
2023-02-13T20:04:13.623Z,5.06
2023-02-13T20:06:41.388Z,5.06
2023-02-13T20:09:12.854Z,5.05
2023-02-13T20:11:41.498Z,5.05
2023-02-13T20:14:14.586Z,5.05
2023-02-13T20:16:45.567Z,5.04
2023-02-13T20:19:14.048Z,5.03
2023-02-13T20:21:43.186Z,5.04
2023-02-13T20:24:12.240Z,5.03
2023-02-13T20:26:40.908Z,5.02
2023-02-13T20:29:09.532Z,5.02
2023-02-13T20:31:39.719Z,5.01
2023-02-13T20:34:08.549Z,5.00
2023-02-13T20:36:36.655Z,4.99
2023-02-13T20:39:06.845Z,4.98
2023-02-13T20:41:37.194Z,4.97
2023-02-13T20:44:08.458Z,4.97
2023-02-13T20:46:38.229Z,4.96
2023-02-13T20:49:06.522Z,4.96
2023-02-13T20:51:35.150Z,4.95
2023-02-13T20:54:05.620Z,4.94
2023-02-13T20:56:33.436Z,4.94
2023-02-13T20:59:02.729Z,4.93
2023-02-13T21:01:33.796Z,4.93
2023-02-13T21:04:02.311Z,4.92
2023-02-13T21:06:33.509Z,4.90
2023-02-13T21:09:02.666Z,4.89
2023-02-13T21:11:31.385Z,4.89
2023-02-13T21:13:59.263Z,4.87
2023-02-13T21:16:30.499Z,4.86
2023-02-13T21:19:00.425Z,4.84
2023-02-13T21:21:31.615Z,4.83
2023-02-13T21:24:07.953Z,4.83
2023-02-13T21:26:37.295Z,4.81
2023-02-13T21:29:07.368Z,4.80
2023-02-13T21:31:38.976Z,4.79
2023-02-13T21:34:10.079Z,4.77
2023-02-13T21:36:39.149Z,4.77
2023-02-13T21:39:09.721Z,4.76
2023-02-13T21:41:40.605Z,4.75
2023-02-13T21:44:10.188Z,4.74
2023-02-13T21:46:41.463Z,4.74
2023-02-13T21:49:16.719Z,4.73
2023-02-13T21:51:45.155Z,4.72
2023-02-13T21:54:13.851Z,4.72
2023-02-13T21:56:43.028Z,4.71
2023-02-13T21:59:15.367Z,4.70
2023-02-13T22:01:48.378Z,4.69
2023-02-13T22:04:16.999Z,4.68
2023-02-13T22:06:48.830Z,4.67
2023-02-13T22:09:18.377Z,4.66
2023-02-13T22:11:46.308Z,4.66
2023-02-13T22:14:17.303Z,4.66
2023-02-13T22:16:45.976Z,4.65
2023-02-13T22:19:16.004Z,4.64
2023-02-13T22:21:44.523Z,4.64
2023-02-13T22:24:12.351Z,4.63
2023-02-13T22:26:45.122Z,4.63
2023-02-13T22:29:15.096Z,4.63
2023-02-13T22:31:43.665Z,4.62
2023-02-13T22:34:13.687Z,4.63
2023-02-13T22:36:43.010Z,4.63
2023-02-13T22:39:11.877Z,4.62
2023-02-13T22:41:39.675Z,4.63
2023-02-13T22:44:07.421Z,4.63
2023-02-13T22:46:35.575Z,4.64
2023-02-13T22:49:03.910Z,4.63
2023-02-13T22:51:34.118Z,4.64
2023-02-13T22:54:02.300Z,4.63
2023-02-13T22:56:31.267Z,4.63
2023-02-13T22:58:59.731Z,4.64
2023-02-13T23:01:28.777Z,4.63
2023-02-13T23:03:57.339Z,4.61
2023-02-13T23:06:26.869Z,4.61
2023-02-13T23:08:55.377Z,4.61
2023-02-13T23:11:45.000Z,4.60
2023-02-13T23:14:13.493Z,4.59
2023-02-13T23:17:00.999Z,4.58
2023-02-13T23:19:30.183Z,4.58
2023-02-13T23:21:59.758Z,4.57
2023-02-13T23:24:29.546Z,4.56
2023-02-13T23:26:57.726Z,4.56
2023-02-13T23:29:25.959Z,4.56
2023-02-13T23:31:54.071Z,4.55
2023-02-13T23:34:22.817Z,4.54
2023-02-13T23:36:50.617Z,4.54
2023-02-13T23:39:19.917Z,4.54
2023-02-13T23:41:47.677Z,4.54
2023-02-13T23:44:15.421Z,4.53
2023-02-13T23:46:43.293Z,4.53
2023-02-13T23:49:11.158Z,4.53
2023-02-13T23:51:38.941Z,4.53
2023-02-13T23:54:06.802Z,4.52
2023-02-13T23:56:34.665Z,4.52
2023-02-13T23:59:02.519Z,4.51
